createdAt,value
2018-09-10T00:00:38.782Z,87.39
2018-09-10T00:03:07.318Z,87.61
2018-09-10T00:05:35.912Z,87.69
2018-09-10T00:08:04.474Z,88.05
2018-09-10T00:10:33.059Z,87.86
2018-09-10T00:13:01.635Z,87.48
2018-09-10T00:15:30.188Z,87.59
2018-09-10T00:17:58.774Z,87.57
2018-09-10T00:20:27.410Z,87.73
2018-09-10T00:22:55.991Z,87.76
2018-09-10T00:25:24.579Z,88.26
2018-09-10T00:27:53.089Z,88.09
2018-09-10T00:30:21.658Z,88.21
2018-09-10T00:32:50.295Z,87.59
2018-09-10T00:35:19.506Z,87.96
2018-09-10T00:37:48.040Z,87.62
2018-09-10T00:40:16.668Z,87.61
2018-09-10T00:42:45.281Z,87.43
2018-09-10T00:45:13.875Z,88.05
2018-09-10T00:47:42.500Z,88.20
2018-09-10T00:50:11.130Z,87.73
2018-09-10T00:52:40.567Z,87.64
2018-09-10T00:55:09.174Z,87.52
2018-09-10T00:57:37.705Z,87.65
2018-09-10T01:00:06.531Z,88.22
2018-09-10T01:02:35.103Z,87.57
2018-09-10T01:05:03.651Z,88.23
2018-09-10T01:07:32.300Z,87.78
2018-09-10T01:10:00.867Z,87.40
2018-09-10T01:12:29.483Z,88.04
2018-09-10T01:14:58.736Z,87.92
2018-09-10T01:17:27.337Z,87.96
2018-09-10T01:19:56.139Z,87.63
2018-09-10T01:22:24.655Z,87.75
2018-09-10T01:24:53.181Z,87.64
2018-09-10T01:27:21.733Z,87.58
2018-09-10T01:29:50.276Z,87.68
2018-09-10T01:32:18.843Z,87.70
2018-09-10T01:34:52.491Z,87.98
2018-09-10T01:37:21.030Z,87.30
2018-09-10T01:39:49.514Z,87.86
2018-09-10T01:42:18.002Z,87.78
2018-09-10T01:44:46.497Z,87.50
2018-09-10T01:47:15.012Z,87.56
2018-09-10T01:49:43.538Z,87.29
2018-09-10T01:52:12.103Z,87.45
2018-09-10T01:54:40.609Z,87.43
2018-09-10T01:57:09.194Z,87.66
2018-09-10T01:59:37.743Z,87.55
2018-09-10T02:02:06.446Z,87.82
2018-09-10T02:04:34.953Z,87.41
2018-09-10T02:07:03.453Z,87.69
2018-09-10T02:09:32.042Z,87.56
2018-09-10T02:12:00.523Z,87.51
2018-09-10T02:14:29.014Z,87.25
2018-09-10T02:16:57.514Z,87.40
2018-09-10T02:19:26.017Z,87.32
2018-09-10T02:21:54.506Z,87.46
2018-09-10T02:24:23.010Z,87.39
2018-09-10T02:26:51.513Z,87.30
2018-09-10T02:29:20.191Z,87.78
2018-09-10T02:31:48.717Z,87.53
2018-09-10T02:34:17.211Z,87.42
2018-09-10T02:36:45.762Z,87.99
2018-09-10T02:39:14.282Z,87.36
2018-09-10T02:41:43.765Z,88.01
2018-09-10T02:44:13.484Z,87.25
2018-09-10T02:46:41.975Z,87.44
2018-09-10T02:49:10.598Z,87.18
2018-09-10T02:51:39.102Z,87.85
2018-09-10T02:54:07.626Z,87.19
2018-09-10T02:56:36.869Z,87.91
2018-09-10T02:59:05.505Z,88.02
2018-09-10T03:01:34.621Z,87.87
2018-09-10T03:04:03.106Z,87.41
2018-09-10T03:06:31.691Z,87.84
2018-09-10T03:09:00.158Z,87.74
2018-09-10T03:11:28.720Z,87.69
2018-09-10T03:13:57.209Z,87.80
2018-09-10T03:16:25.816Z,87.91
2018-09-10T03:18:54.322Z,87.36
2018-09-10T03:21:22.824Z,87.90
2018-09-10T03:23:51.410Z,87.17
2018-09-10T03:26:19.918Z,87.14
2018-09-10T03:28:48.454Z,87.35
2018-09-10T03:31:16.987Z,88.10
2018-09-10T03:33:45.594Z,85.52
2018-09-10T03:36:14.050Z,85.24
2018-09-10T03:38:42.686Z,84.93
2018-09-10T03:41:11.176Z,85.32
2018-09-10T03:43:39.657Z,86.03
2018-09-10T03:46:08.223Z,86.38
2018-09-10T03:48:36.758Z,86.09
2018-09-10T03:51:05.271Z,85.83
2018-09-10T03:53:33.871Z,86.66
2018-09-10T03:56:02.408Z,86.50
2018-09-10T03:58:31.009Z,86.03
2018-09-10T04:00:59.502Z,86.74
2018-09-10T04:03:28.027Z,86.36
2018-09-10T04:05:56.624Z,86.96
2018-09-10T04:08:25.146Z,86.41
2018-09-10T04:10:53.651Z,86.34
2018-09-10T04:13:22.162Z,86.55
2018-09-10T04:15:50.966Z,86.84
2018-09-10T04:18:19.564Z,84.10
2018-09-10T04:20:48.114Z,84.02
2018-09-10T04:23:16.653Z,84.85
2018-09-10T04:25:45.194Z,85.02
2018-09-10T04:28:13.690Z,85.32
2018-09-10T04:30:42.274Z,86.04
2018-09-10T04:33:10.810Z,85.91
2018-09-10T04:35:41.426Z,86.01
2018-09-10T04:38:10.058Z,86.12
2018-09-10T04:40:38.536Z,85.63
2018-09-10T04:43:07.082Z,86.03
2018-09-10T04:45:35.614Z,85.65
2018-09-10T04:48:04.163Z,86.45
2018-09-10T04:50:32.751Z,85.84
2018-09-10T04:53:01.338Z,85.95
2018-09-10T04:55:29.953Z,85.87
2018-09-10T04:57:58.751Z,86.55
2018-09-10T05:00:27.276Z,86.18
2018-09-10T05:02:55.893Z,85.97
2018-09-10T05:05:24.489Z,86.08
2018-09-10T05:07:53.019Z,86.49
2018-09-10T05:10:21.512Z,86.36
2018-09-10T05:12:50.077Z,86.45
2018-09-10T05:15:18.624Z,86.04
2018-09-10T05:17:47.147Z,86.43
2018-09-10T05:20:15.722Z,86.29
2018-09-10T05:22:44.210Z,86.29
2018-09-10T05:25:12.715Z,86.74
2018-09-10T05:27:41.286Z,86.87
2018-09-10T05:30:09.819Z,86.72
2018-09-10T05:32:38.333Z,86.28
2018-09-10T05:35:06.841Z,86.58
2018-09-10T05:37:35.336Z,86.17
2018-09-10T05:40:04.765Z,86.90
2018-09-10T05:42:33.247Z,86.38
2018-09-10T05:45:01.870Z,85.42
2018-09-10T05:47:30.484Z,82.81
2018-09-10T05:49:58.950Z,81.99
2018-09-10T05:52:27.489Z,80.10
2018-09-10T05:54:56.030Z,79.75
2018-09-10T05:57:24.561Z,79.01
2018-09-10T05:59:53.087Z,78.14
2018-09-10T06:02:21.631Z,77.46
2018-09-10T06:04:50.084Z,77.92
2018-09-10T06:07:18.667Z,78.48
2018-09-10T06:09:47.178Z,78.76
2018-09-10T06:12:15.690Z,79.54
2018-09-10T06:14:44.210Z,80.75
2018-09-10T06:17:12.739Z,80.90
2018-09-10T06:19:41.249Z,80.89
2018-09-10T06:22:09.776Z,81.35
2018-09-10T06:24:38.291Z,82.12
2018-09-10T06:27:06.808Z,81.67
2018-09-10T06:29:35.306Z,82.09
2018-09-10T06:32:03.783Z,81.89
2018-09-10T06:34:32.287Z,82.70
2018-09-10T06:37:00.841Z,82.17
2018-09-10T06:39:29.295Z,82.66
2018-09-10T06:41:57.877Z,82.56
2018-09-10T06:44:26.515Z,82.72
2018-09-10T06:46:55.159Z,82.46
2018-09-10T06:49:23.706Z,82.16
2018-09-10T06:51:52.318Z,79.70
2018-09-10T06:54:20.868Z,77.83
2018-09-10T06:56:49.384Z,74.90
2018-09-10T06:59:18.018Z,73.78
2018-09-10T07:01:46.605Z,72.38
2018-09-10T07:04:15.210Z,71.96
2018-09-10T07:06:43.783Z,73.61
2018-09-10T07:09:12.386Z,73.85
2018-09-10T07:11:41.062Z,75.75
2018-09-10T07:16:37.359Z,76.19
2018-09-10T07:19:05.976Z,75.76
2018-09-10T07:21:34.523Z,75.25
2018-09-10T07:24:03.939Z,76.15
2018-09-10T07:26:32.536Z,75.76
2018-09-10T07:29:01.095Z,75.81
2018-09-10T07:31:29.729Z,75.78
2018-09-10T07:33:58.361Z,75.96
2018-09-10T07:36:27.051Z,75.99
2018-09-10T07:38:56.271Z,76.16
2018-09-10T07:41:25.128Z,76.81
2018-09-10T07:43:53.943Z,77.34
2018-09-10T07:46:23.235Z,76.97
2018-09-10T07:48:52.116Z,77.55
2018-09-10T07:51:20.944Z,77.70
2018-09-10T07:53:49.618Z,77.86
2018-09-10T07:56:19.285Z,77.69
2018-09-10T07:58:48.054Z,77.51
2018-09-10T08:01:17.110Z,78.18
2018-09-10T08:03:45.906Z,78.59
2018-09-10T08:06:14.715Z,78.22
2018-09-10T08:08:43.596Z,79.22
2018-09-10T08:11:12.575Z,79.38
2018-09-10T08:13:41.572Z,80.02
2018-09-10T08:16:10.448Z,80.03
2018-09-10T08:18:39.118Z,80.45
2018-09-10T08:21:07.668Z,80.14
2018-09-10T08:23:36.404Z,80.47
2018-09-10T08:26:05.361Z,80.09
2018-09-10T08:28:33.919Z,79.68
2018-09-10T08:31:02.595Z,80.02
2018-09-10T08:33:31.198Z,80.26
2018-09-10T08:35:59.830Z,79.80
2018-09-10T08:38:28.426Z,80.04
2018-09-10T08:40:56.985Z,79.86
2018-09-10T08:43:25.549Z,80.28
2018-09-10T08:45:54.060Z,80.49
2018-09-10T08:48:22.707Z,80.20
2018-09-10T08:50:51.274Z,80.59
2018-09-10T08:53:19.825Z,80.75
2018-09-10T08:55:48.560Z,80.90
2018-09-10T08:58:17.034Z,83.19
2018-09-10T09:00:45.624Z,82.67
2018-09-10T09:03:14.196Z,82.80
2018-09-10T09:05:42.790Z,82.06
2018-09-10T09:08:11.371Z,81.94
2018-09-10T09:10:39.943Z,82.78
2018-09-10T09:13:08.544Z,83.11
2018-09-10T09:15:37.060Z,83.13
2018-09-10T09:18:05.738Z,82.56
2018-09-10T09:20:34.298Z,82.31
2018-09-10T09:23:02.963Z,82.36
2018-09-10T09:25:31.693Z,82.98
2018-09-10T09:28:00.409Z,82.92
2018-09-10T09:30:29.249Z,83.04
2018-09-10T09:32:57.819Z,82.94
2018-09-10T09:35:31.673Z,83.34
2018-09-10T09:38:05.594Z,83.04
2018-09-10T09:40:39.474Z,82.34
2018-09-10T09:44:10.887Z,82.49
2018-09-10T09:46:39.599Z,82.90
2018-09-10T09:49:08.321Z,82.35
2018-09-10T09:51:36.986Z,82.46
2018-09-10T09:54:05.644Z,82.85
2018-09-10T09:56:34.432Z,82.26
2018-09-10T09:59:03.271Z,82.82
2018-09-10T10:01:37.122Z,82.33
2018-09-10T10:04:08.803Z,82.91
2018-09-10T10:06:39.919Z,82.15
2018-09-10T10:09:12.695Z,82.25
2018-09-10T10:11:41.820Z,82.53
2018-09-10T10:14:11.211Z,82.60
2018-09-10T10:16:40.408Z,82.44
2018-09-10T10:19:09.221Z,82.24
2018-09-10T10:21:37.983Z,82.62
2018-09-10T10:24:06.808Z,82.82
2018-09-10T10:26:35.439Z,82.76
2018-09-10T10:29:04.172Z,82.47
2018-09-10T10:31:32.918Z,82.22
2018-09-10T10:34:01.832Z,82.86
2018-09-10T10:36:30.676Z,82.62
2018-09-10T10:38:59.496Z,82.47
2018-09-10T10:41:28.681Z,82.97
2018-09-10T10:43:57.324Z,82.48
2018-09-10T10:46:27.207Z,82.56
2018-09-10T10:48:56.034Z,82.44
2018-09-10T10:51:25.538Z,82.66
2018-09-10T10:53:54.257Z,82.35
2018-09-10T10:56:22.860Z,82.88
2018-09-10T10:58:52.028Z,82.49
2018-09-10T11:01:21.353Z,82.56
2018-09-10T11:03:50.160Z,82.58
2018-09-10T11:06:18.783Z,83.06
2018-09-10T11:08:47.613Z,83.40
2018-09-10T11:11:16.187Z,83.05
2018-09-10T11:13:44.807Z,82.82
2018-09-10T11:16:13.416Z,83.45
2018-09-10T11:18:42.387Z,83.06
2018-09-10T11:21:11.071Z,83.24
2018-09-10T11:23:39.852Z,83.58
2018-09-10T11:26:08.461Z,83.44
2018-09-10T11:28:37.440Z,83.61
2018-09-10T11:31:06.592Z,83.35
2018-09-10T11:33:35.324Z,83.41
2018-09-10T11:36:04.125Z,84.09
2018-09-10T11:38:32.792Z,83.99
2018-09-10T11:41:01.391Z,83.74
2018-09-10T11:43:30.092Z,84.07
2018-09-10T11:45:58.587Z,84.01
2018-09-10T11:48:27.921Z,83.47
2018-09-10T11:50:57.295Z,83.91
2018-09-10T11:53:25.833Z,83.87
2018-09-10T11:55:54.377Z,83.33
2018-09-10T11:58:23.593Z,83.80
2018-09-10T12:00:52.239Z,83.39
2018-09-10T12:03:20.727Z,83.93
2018-09-10T12:05:49.219Z,84.60
2018-09-10T12:08:17.731Z,84.24
2018-09-10T12:10:46.190Z,84.99
2018-09-10T12:13:14.790Z,85.73
2018-09-10T12:15:43.327Z,85.70
2018-09-10T12:18:11.815Z,85.44
2018-09-10T12:20:40.287Z,86.71
2018-09-10T12:23:08.775Z,86.51
2018-09-10T12:25:37.729Z,86.32
2018-09-10T12:28:06.542Z,87.78
2018-09-10T12:30:35.079Z,87.60
2018-09-10T12:33:03.597Z,88.03
2018-09-10T12:35:32.060Z,88.74
2018-09-10T12:38:00.543Z,88.19
2018-09-10T12:40:29.062Z,89.53
2018-09-10T12:42:57.621Z,89.94
2018-09-10T12:45:26.094Z,90.60
2018-09-10T12:47:54.574Z,91.55
2018-09-10T12:50:23.070Z,91.09
2018-09-10T12:52:51.557Z,91.11
2018-09-10T12:55:20.022Z,91.62
2018-09-10T12:57:48.477Z,91.24
2018-09-10T13:00:16.986Z,91.74
2018-09-10T13:02:45.514Z,92.85
2018-09-10T13:05:14.173Z,92.97
2018-09-10T13:07:42.694Z,92.49
2018-09-10T13:10:11.306Z,92.79
2018-09-10T13:12:39.792Z,92.30
2018-09-10T13:15:08.293Z,92.44
2018-09-10T13:17:36.766Z,92.84
2018-09-10T13:20:05.315Z,93.04
2018-09-10T13:22:33.816Z,93.05
2018-09-10T13:25:02.300Z,93.16
2018-09-10T13:27:30.787Z,94.34
2018-09-10T13:29:59.263Z,94.23
2018-09-10T13:32:27.754Z,93.77
2018-09-10T13:34:56.243Z,93.59
2018-09-10T13:37:24.753Z,94.03
2018-09-10T13:39:53.307Z,94.03
2018-09-10T13:42:21.812Z,94.33
2018-09-10T13:44:50.415Z,95.16
2018-09-10T13:47:18.900Z,94.29
2018-09-10T13:49:47.482Z,92.86
2018-09-10T13:52:15.995Z,92.84
2018-09-10T13:54:44.529Z,93.10
2018-09-10T13:57:13.536Z,93.18
2018-09-10T13:59:42.084Z,93.32
2018-09-10T14:02:10.559Z,92.73
2018-09-10T14:04:39.038Z,93.73
2018-09-10T14:07:07.528Z,93.50
2018-09-10T14:09:36.000Z,93.34
2018-09-10T14:12:04.483Z,93.56
2018-09-10T14:14:32.960Z,92.77
2018-09-10T14:17:01.451Z,93.82
2018-09-10T14:19:29.982Z,94.95
2018-09-10T14:21:58.451Z,94.68
2018-09-10T14:24:26.932Z,94.77
2018-09-10T14:26:55.450Z,93.71
2018-09-10T14:29:23.931Z,93.35
2018-09-10T14:31:52.460Z,93.32
2018-09-10T14:34:20.948Z,92.86
2018-09-10T14:36:49.482Z,92.09
2018-09-10T14:39:17.959Z,90.78
2018-09-10T14:41:46.474Z,91.15
2018-09-10T14:44:15.004Z,90.71
2018-09-10T14:46:43.495Z,91.05
2018-09-10T14:49:12.058Z,90.60
2018-09-10T14:51:40.547Z,90.06
2018-09-10T14:54:09.176Z,90.00
2018-09-10T14:56:37.646Z,89.70
2018-09-10T14:59:06.242Z,90.15
2018-09-10T15:01:34.775Z,89.78
2018-09-10T15:04:03.480Z,89.61
2018-09-10T15:06:31.949Z,89.01
2018-09-10T15:09:00.452Z,88.90
2018-09-10T15:11:28.953Z,89.58
2018-09-10T15:13:57.428Z,89.12
2018-09-10T15:16:25.903Z,88.18
2018-09-10T15:18:54.447Z,88.06
2018-09-10T15:21:22.890Z,87.87
2018-09-10T15:23:51.483Z,87.29
2018-09-10T15:26:19.955Z,88.19
2018-09-10T15:28:48.433Z,87.96
2018-09-10T15:31:16.923Z,87.77
2018-09-10T15:33:45.387Z,87.70
2018-09-10T15:36:13.914Z,86.66
2018-09-10T15:38:42.409Z,86.78
2018-09-10T15:41:10.918Z,87.12
2018-09-10T15:43:39.385Z,87.31
2018-09-10T15:46:07.883Z,87.16
2018-09-10T15:48:36.376Z,86.42
2018-09-10T15:51:04.872Z,87.06
2018-09-10T15:53:33.430Z,86.77
2018-09-10T15:56:01.867Z,86.98
2018-09-10T15:58:30.358Z,86.19
2018-09-10T16:00:58.841Z,86.10
2018-09-10T16:03:27.327Z,86.30
2018-09-10T16:05:55.786Z,86.62
2018-09-10T16:08:24.263Z,86.53
2018-09-10T16:10:52.845Z,86.42
2018-09-10T16:13:21.315Z,86.33
2018-09-10T16:15:49.967Z,85.97
2018-09-10T16:18:18.443Z,86.06
2018-09-10T16:20:46.911Z,86.07
2018-09-10T16:23:15.380Z,86.49
2018-09-10T16:25:43.847Z,85.91
2018-09-10T16:28:12.327Z,85.98
2018-09-10T16:30:40.800Z,86.04
2018-09-10T16:33:09.334Z,85.59
2018-09-10T16:35:37.807Z,85.75
2018-09-10T16:38:06.314Z,86.05
2018-09-10T16:40:34.785Z,85.73
2018-09-10T16:43:03.291Z,86.18
2018-09-10T16:45:31.767Z,85.70
2018-09-10T16:48:00.235Z,86.08
2018-09-10T16:50:28.966Z,86.25
2018-09-10T16:52:57.422Z,86.14
2018-09-10T16:55:25.878Z,85.94
2018-09-10T16:57:54.356Z,86.12
2018-09-10T17:00:23.013Z,85.89
2018-09-10T17:02:51.531Z,86.09
2018-09-10T17:05:20.008Z,86.08
2018-09-10T17:07:48.607Z,85.80
2018-09-10T17:10:17.127Z,85.94
2018-09-10T17:12:45.646Z,85.59
2018-09-10T17:15:14.109Z,85.57
2018-09-10T17:17:42.576Z,86.05
2018-09-10T17:20:11.205Z,85.08
2018-09-10T17:22:39.764Z,85.63
2018-09-10T17:25:08.199Z,85.50
2018-09-10T17:27:36.680Z,85.61
2018-09-10T17:30:05.186Z,85.53
2018-09-10T17:32:33.674Z,86.15
2018-09-10T17:35:02.236Z,85.98
2018-09-10T17:37:30.718Z,86.21
2018-09-10T17:39:59.189Z,85.33
2018-09-10T17:42:27.695Z,85.75
2018-09-10T17:44:56.867Z,85.45
2018-09-10T17:47:25.330Z,85.46
2018-09-10T17:49:53.844Z,85.61
2018-09-10T17:52:22.341Z,85.42
2018-09-10T17:54:50.820Z,84.85
2018-09-10T17:57:19.300Z,85.48
2018-09-10T17:59:47.800Z,85.30
2018-09-10T18:02:16.290Z,84.89
2018-09-10T18:04:44.784Z,85.42
2018-09-10T18:07:13.320Z,85.20
2018-09-10T18:09:41.898Z,85.02
2018-09-10T18:12:10.369Z,85.21
2018-09-10T18:14:38.901Z,84.94
2018-09-10T18:17:07.382Z,84.57
2018-09-10T18:19:35.895Z,85.09
2018-09-10T18:22:04.394Z,84.47
2018-09-10T18:24:32.899Z,85.17
2018-09-10T18:27:01.390Z,84.70
2018-09-10T18:29:29.878Z,85.13
2018-09-10T18:31:58.377Z,84.48
2018-09-10T18:34:26.891Z,84.80
2018-09-10T18:36:55.378Z,85.11
2018-09-10T18:39:23.879Z,84.95
2018-09-10T18:41:52.363Z,85.33
2018-09-10T18:44:20.829Z,85.22
2018-09-10T18:46:49.304Z,85.18
2018-09-10T18:49:17.917Z,84.58
2018-09-10T18:51:46.428Z,85.23
2018-09-10T18:54:14.906Z,85.08
2018-09-10T18:56:43.391Z,84.63
2018-09-10T18:59:11.919Z,84.81
2018-09-10T19:01:40.502Z,85.07
2018-09-10T19:04:08.887Z,85.31
2018-09-10T19:06:37.401Z,84.84
2018-09-10T19:09:07.947Z,84.65
2018-09-10T19:11:36.629Z,84.91
2018-09-10T19:14:05.141Z,84.58
2018-09-10T19:16:33.735Z,84.71
2018-09-10T19:19:02.287Z,84.71
2018-09-10T19:21:30.836Z,85.29
2018-09-10T19:23:59.483Z,85.33
2018-09-10T19:26:27.970Z,84.64
2018-09-10T19:28:56.532Z,84.79
2018-09-10T19:31:25.521Z,85.17
2018-09-10T19:33:54.400Z,85.45
2018-09-10T19:36:22.966Z,85.33
2018-09-10T19:38:51.474Z,84.74
2018-09-10T19:41:20.041Z,84.79
2018-09-10T19:43:48.680Z,85.13
2018-09-10T19:46:17.233Z,85.47
2018-09-10T19:48:45.791Z,85.66
2018-09-10T19:51:14.304Z,85.60
2018-09-10T19:53:42.846Z,84.89
2018-09-10T19:56:11.413Z,85.16
2018-09-10T19:58:39.939Z,85.56
2018-09-10T20:01:08.450Z,85.00
2018-09-10T20:03:37.100Z,85.05
2018-09-10T20:06:05.586Z,85.64
2018-09-10T20:08:34.082Z,85.57
2018-09-10T20:11:02.592Z,85.64
2018-09-10T20:13:31.187Z,85.69
2018-09-10T20:15:59.711Z,85.54
2018-09-10T20:18:28.215Z,85.52
2018-09-10T20:20:56.903Z,85.79
2018-09-10T20:23:25.480Z,84.97
2018-09-10T20:25:54.072Z,85.79
2018-09-10T20:28:22.576Z,85.42
2018-09-10T20:30:51.176Z,85.92
2018-09-10T20:33:20.471Z,85.21
2018-09-10T20:35:49.485Z,85.16
2018-09-10T20:38:18.063Z,85.23
2018-09-10T20:40:46.577Z,85.03
2018-09-10T20:43:15.180Z,85.54
2018-09-10T20:45:44.864Z,85.28
2018-09-10T20:48:13.422Z,85.34
2018-09-10T20:50:42.106Z,85.70
2018-09-10T20:53:10.636Z,85.40
2018-09-10T20:55:39.345Z,85.59
2018-09-10T20:58:08.115Z,86.03
2018-09-10T21:00:36.654Z,85.63
2018-09-10T21:03:05.239Z,86.30
2018-09-10T21:05:33.742Z,86.11
2018-09-10T21:08:02.298Z,85.81
2018-09-10T21:10:30.854Z,86.02
2018-09-10T21:12:59.478Z,86.11
2018-09-10T21:15:28.945Z,86.08
2018-09-10T21:19:00.875Z,85.65
2018-09-10T21:21:29.400Z,86.02
2018-09-10T21:23:58.340Z,86.10
2018-09-10T21:26:27.702Z,85.75
2018-09-10T21:28:56.348Z,85.50
2018-09-10T21:31:25.022Z,85.86
2018-09-10T21:33:53.544Z,85.66
2018-09-10T21:36:22.158Z,86.29
2018-09-10T21:38:50.693Z,85.91
2018-09-10T21:41:19.295Z,85.88
2018-09-10T21:43:47.924Z,85.96
2018-09-10T21:46:16.487Z,86.22
2018-09-10T21:48:45.002Z,85.67
2018-09-10T21:51:13.524Z,85.82
2018-09-10T21:53:42.160Z,86.19
2018-09-10T21:56:10.699Z,86.09
2018-09-10T21:58:39.262Z,85.89
2018-09-10T22:01:07.769Z,85.87
2018-09-10T22:03:36.395Z,85.83
2018-09-10T22:06:04.977Z,85.85
2018-09-10T22:08:33.494Z,86.00
2018-09-10T22:11:08.834Z,85.92
2018-09-10T22:13:37.535Z,85.58
2018-09-10T22:16:06.128Z,86.43
2018-09-10T22:18:34.656Z,86.07
2018-09-10T22:21:03.516Z,85.65
2018-09-10T22:23:32.077Z,86.24
2018-09-10T22:26:00.603Z,85.66
2018-09-10T22:28:29.129Z,85.99
2018-09-10T22:30:58.322Z,86.30
2018-09-10T22:34:55.967Z,86.07
2018-09-10T22:37:24.520Z,85.74
2018-09-10T22:39:53.052Z,86.45
2018-09-10T22:42:21.603Z,86.40
2018-09-10T22:44:50.157Z,85.99
2018-09-10T22:47:18.702Z,86.02
2018-09-10T22:49:47.303Z,86.38
2018-09-10T22:52:15.836Z,86.23
2018-09-10T22:54:44.396Z,86.42
2018-09-10T22:57:12.903Z,86.43
2018-09-10T22:59:41.443Z,86.24
2018-09-10T23:02:10.036Z,86.47
2018-09-10T23:04:38.565Z,86.01
2018-09-10T23:07:07.187Z,86.52
2018-09-10T23:09:35.741Z,86.49
2018-09-10T23:12:04.324Z,86.34
2018-09-10T23:14:32.851Z,86.23
2018-09-10T23:17:01.366Z,86.10
2018-09-10T23:19:29.971Z,86.34
2018-09-10T23:21:58.659Z,86.15
2018-09-10T23:24:27.143Z,86.59
2018-09-10T23:26:55.683Z,86.53
2018-09-10T23:29:24.158Z,86.62
2018-09-10T23:31:52.755Z,86.23
2018-09-10T23:34:21.305Z,86.07
2018-09-10T23:36:50.183Z,86.70
2018-09-10T23:39:18.681Z,86.08
2018-09-10T23:41:47.254Z,86.30
2018-09-10T23:44:15.786Z,86.16
2018-09-10T23:46:44.396Z,86.45
2018-09-10T23:49:12.976Z,86.26
2018-09-10T23:51:41.485Z,86.04
2018-09-10T23:54:10.274Z,86.79
2018-09-10T23:56:39.038Z,86.37
2018-09-10T23:59:07.651Z,86.74
